Time;durP1;ratioP1;P1;durP2;ratioP2;P2;SDS_P1;SDS_P2;PMS_P1;PMS_P2;Temp;Humidity;BMP_temperature;BMP_pressure;BME280_temperature;BME280_humidity;BME280_pressure;Samples;Min_cycle;Max_cycle;Signal;HPM_P1;HPM_P2
2022/07/25 00:01:45;;;;;;;10.93;8.18;;;;;;;24.46;55.60;94020.38;5124598;28;20019;-89
2022/07/25 00:04:11;;;;;;;11.80;9.07;;;;;;;24.42;56.46;94025.84;5124456;28;20031;-84
2022/07/25 00:06:37;;;;;;;11.32;8.15;;;;;;;24.39;56.41;94024.72;5124208;28;20019;-83
2022/07/25 00:09:03;;;;;;;9.60;8.02;;;;;;;24.36;57.27;94032.88;5124454;27;20054;-82
2022/07/25 00:11:29;;;;;;;10.85;7.55;;;;;;;24.34;56.67;94035.22;5124268;28;20027;-84
2022/07/25 00:13:55;;;;;;;14.23;9.15;;;;;;;24.21;57.09;94029.47;5124231;27;20015;-83
2022/07/25 00:16:20;;;;;;;15.35;8.85;;;;;;;24.07;57.71;94026.81;5123935;28;20063;-83
2022/07/25 00:18:46;;;;;;;16.42;9.57;;;;;;;23.92;58.00;94032.31;5124335;28;20023;-86
2022/07/25 00:21:12;;;;;;;10.30;8.25;;;;;;;23.87;59.24;94034.66;5123955;28;20023;-86
2022/07/25 00:23:37;;;;;;;14.23;8.95;;;;;;;23.83;59.66;94030.00;5123991;28;20026;-85
2022/07/25 00:26:03;;;;;;;11.23;8.98;;;;;;;23.80;59.31;94025.34;5122875;28;20209;-86
2022/07/25 00:28:28;;;;;;;15.10;9.35;;;;;;;23.78;59.62;94019.50;5123619;28;20015;-86
2022/07/25 00:30:54;;;;;;;17.90;9.57;;;;;;;23.76;59.77;94019.09;5122713;28;20086;-86
2022/07/25 00:33:20;;;;;;;11.25;9.45;;;;;;;23.74;59.92;94015.22;5122060;28;20019;-85
2022/07/25 00:35:45;;;;;;;12.57;9.02;;;;;;;23.72;60.21;94007.44;5123839;28;20023;-86
2022/07/25 00:38:10;;;;;;;17.98;10.20;;;;;;;23.69;60.05;94008.25;5123700;28;20035;-86
2022/07/25 00:40:36;;;;;;;13.98;9.77;;;;;;;23.64;59.92;93993.06;5122427;28;20019;-84
2022/07/25 00:43:02;;;;;;;12.45;8.55;;;;;;;23.62;59.26;94006.28;5122346;28;20016;-84
2022/07/25 00:45:27;;;;;;;16.23;9.05;;;;;;;23.55;59.36;94008.25;5123603;28;20094;-85
2022/07/25 00:47:53;;;;;;;13.23;8.43;;;;;;;23.44;59.37;94009.06;5123007;28;20096;-84
2022/07/25 00:50:18;;;;;;;13.63;8.45;;;;;;;23.41;59.33;94001.69;5123568;28;20061;-84
2022/07/25 00:52:45;;;;;;;12.07;8.52;;;;;;;23.40;59.57;94002.84;5123918;28;20007;-83
2022/07/25 00:55:11;;;;;;;12.40;9.48;;;;;;;23.36;59.46;93988.47;5123381;27;20143;-82
2022/07/25 00:57:37;;;;;;;12.60;9.77;;;;;;;23.34;58.99;94003.63;5123348;28;20095;-84
2022/07/25 01:00:11;;;;;;;17.38;9.07;;;;;;;23.33;59.25;94002.88;5123307;28;20022;-84
2022/07/25 01:02:36;;;;;;;14.15;9.30;;;;;;;23.30;59.53;93990.03;5123236;28;20221;-83
2022/07/25 01:05:04;;;;;;;15.05;9.10;;;;;;;23.23;59.78;94009.88;5123311;28;20031;-84
2022/07/25 01:07:30;;;;;;;10.65;9.15;;;;;;;23.16;59.32;94007.16;5123389;28;20023;-84
2022/07/25 01:09:56;;;;;;;13.55;9.52;;;;;;;23.16;59.24;94009.09;5123156;28;20019;-83
2022/07/25 01:12:21;;;;;;;13.38;8.60;;;;;;;23.16;59.61;94009.88;5123137;28;20020;-83
2022/07/25 01:14:47;;;;;;;13.45;8.65;;;;;;;23.21;60.52;94000.56;5123389;28;20027;-84
2022/07/25 01:17:13;;;;;;;11.85;9.60;;;;;;;23.22;60.53;94008.31;5123001;28;20036;-83
2022/07/25 01:19:38;;;;;;;10.98;9.25;;;;;;;23.25;60.03;94003.28;5123048;28;20036;-83
2022/07/25 01:22:04;;;;;;;11.45;9.38;;;;;;;23.27;60.37;94004.44;5123131;28;20031;-84
2022/07/25 01:24:29;;;;;;;13.25;8.68;;;;;;;23.30;60.83;94006.34;5123108;28;20024;-82
2022/07/25 01:26:54;;;;;;;13.68;9.23;;;;;;;23.35;60.74;94010.66;5122911;28;20020;-83
2022/07/25 01:29:20;;;;;;;11.93;9.13;;;;;;;23.32;60.37;94014.91;5123174;28;20060;-82
2022/07/25 01:31:46;;;;;;;16.45;8.55;;;;;;;23.30;60.61;94011.78;5123058;28;20027;-83
2022/07/25 01:34:11;;;;;;;14.82;8.95;;;;;;;23.32;60.30;94004.03;5122948;28;20024;-82
2022/07/25 01:36:37;;;;;;;12.50;8.70;;;;;;;23.39;60.88;94004.03;5123013;28;20043;-82
2022/07/25 01:39:03;;;;;;;12.05;8.60;;;;;;;23.37;60.48;93998.19;5123016;28;20324;-83
2022/07/25 01:41:28;;;;;;;11.85;9.68;;;;;;;23.37;60.62;94006.34;5122930;28;20020;-82
2022/07/25 01:43:54;;;;;;;14.00;9.88;;;;;;;23.39;60.38;93997.81;5122724;28;20024;-84
2022/07/25 01:46:19;;;;;;;12.32;9.27;;;;;;;23.40;60.37;94002.06;5126760;28;20020;-84
2022/07/25 01:48:45;;;;;;;13.07;9.45;;;;;;;23.46;60.75;94010.63;5125885;28;20023;-84
2022/07/25 01:51:10;;;;;;;14.93;8.80;;;;;;;23.44;60.43;94006.34;5127120;28;20089;-84
2022/07/25 01:53:36;;;;;;;12.73;8.30;;;;;;;23.46;60.68;94007.91;5126743;28;20309;-84
2022/07/25 01:56:02;;;;;;;13.95;9.77;;;;;;;23.46;60.80;94008.66;5126764;28;20019;-84
2022/07/25 01:58:27;;;;;;;10.13;8.23;;;;;;;23.46;60.89;94005.19;5126968;28;20156;-84
2022/07/25 02:00:52;;;;;;;12.18;8.57;;;;;;;23.46;60.76;94008.66;5126694;28;20104;-84
2022/07/25 02:03:30;;;;;;;12.57;9.02;;;;;;;23.44;60.42;94011.78;5126842;27;20220;-84
2022/07/25 02:06:02;;;;;;;10.95;8.95;;;;;;;23.44;60.28;94016.44;5126774;28;20023;-84
2022/07/25 02:08:29;;;;;;;12.00;9.23;;;;;;;23.42;58.30;94005.94;5126529;28;20046;-85
2022/07/25 02:10:55;;;;;;;13.90;8.35;;;;;;;23.39;58.47;94012.19;5126680;28;20027;-85
2022/07/25 02:13:21;;;;;;;13.23;8.48;;;;;;;23.38;58.82;94009.84;5126568;28;20378;-85
2022/07/25 02:15:47;;;;;;;10.65;8.35;;;;;;;23.37;58.13;94005.59;5126524;28;20015;-84
2022/07/25 02:18:12;;;;;;;12.63;8.30;;;;;;;23.34;57.95;94007.13;5126278;28;20042;-84
2022/07/25 02:20:38;;;;;;;14.60;8.55;;;;;;;23.32;58.13;94020.34;5126326;28;20076;-84
2022/07/25 02:23:04;;;;;;;15.55;8.80;;;;;;;23.29;58.22;94012.97;5126022;28;20016;-82
2022/07/25 02:25:31;;;;;;;11.93;8.43;;;;;;;23.26;58.20;94005.59;5126098;28;20023;-83
2022/07/25 02:27:57;;;;;;;15.38;8.85;;;;;;;23.24;58.71;94013.34;5126288;28;20027;-83
2022/07/25 02:30:22;;;;;;;15.00;9.25;;;;;;;23.17;59.04;94019.59;5126036;28;20019;-82
2022/07/25 02:32:48;;;;;;;9.85;7.93;;;;;;;23.19;59.09;94024.63;5126612;27;20019;-83
2022/07/25 02:35:13;;;;;;;13.30;8.75;;;;;;;23.15;59.12;94023.88;5126150;28;20349;-83
2022/07/25 02:37:39;;;;;;;12.43;8.82;;;;;;;23.12;59.76;94016.47;5126024;28;20019;-83
2022/07/25 02:40:05;;;;;;;13.43;9.25;;;;;;;23.01;59.31;94019.97;5125848;28;20042;-83
2022/07/25 02:42:31;;;;;;;17.55;8.75;;;;;;;23.00;59.42;94017.63;5124709;28;20019;-83
2022/07/25 02:44:56;;;;;;;15.52;8.93;;;;;;;22.96;59.24;94014.09;5124242;27;20062;-84
2022/07/25 02:47:22;;;;;;;12.35;8.68;;;;;;;22.91;59.63;94012.56;5125772;28;20306;-82
2022/07/25 02:49:47;;;;;;;13.70;8.95;;;;;;;22.88;59.94;94009.84;5125545;28;20024;-83
2022/07/25 02:52:13;;;;;;;15.27;8.60;;;;;;;22.80;59.50;94011.78;5125865;28;20027;-81
2022/07/25 02:54:38;;;;;;;14.13;7.45;;;;;;;22.75;56.54;94006.72;5125567;27;20020;-82
2022/07/25 02:57:04;;;;;;;11.23;7.68;;;;;;;22.62;56.10;94003.63;5124979;28;20020;-84
2022/07/25 02:59:29;;;;;;;13.70;7.38;;;;;;;22.60;56.35;94009.44;5125595;28;20024;-83
2022/07/25 03:01:55;;;;;;;10.48;7.57;;;;;;;22.57;56.49;94014.84;5125661;28;20030;-83
2022/07/25 03:04:20;;;;;;;10.45;7.57;;;;;;;22.52;56.53;94010.59;5125437;28;20030;-84
2022/07/25 03:06:46;;;;;;;10.50;7.25;;;;;;;22.48;56.16;94012.50;5125625;28;20094;-84
2022/07/25 03:09:11;;;;;;;11.32;6.85;;;;;;;22.48;56.22;94012.50;5125293;28;20020;-84
2022/07/25 03:11:37;;;;;;;12.65;7.68;;;;;;;22.37;56.25;94004.34;5125225;28;20050;-83
2022/07/25 03:14:02;;;;;;;11.95;7.20;;;;;;;22.33;56.19;94008.22;5125405;28;20056;-83
2022/07/25 03:16:28;;;;;;;13.00;8.02;;;;;;;22.27;55.51;94005.09;5125209;28;20226;-83
2022/07/25 03:18:53;;;;;;;13.77;8.00;;;;;;;22.30;56.56;94014.41;5125006;28;20023;-82
2022/07/25 03:21:19;;;;;;;12.52;7.65;;;;;;;22.24;56.66;94012.06;5124086;28;20076;-82
2022/07/25 03:23:44;;;;;;;12.68;7.32;;;;;;;22.21;56.26;94015.53;5123967;28;20027;-82
2022/07/25 03:26:10;;;;;;;11.60;6.78;;;;;;;22.19;56.77;94014.38;5125128;28;20027;-82
2022/07/25 03:28:35;;;;;;;10.07;6.72;;;;;;;22.11;56.79;94021.69;5125059;27;20200;-81
2022/07/25 03:31:01;;;;;;;9.50;6.18;;;;;;;22.05;57.19;94017.81;5125101;28;20020;-81
2022/07/25 03:33:26;;;;;;;9.00;6.85;;;;;;;22.02;57.51;94015.84;5125136;28;20022;-81
2022/07/25 03:35:52;;;;;;;13.43;7.13;;;;;;;21.97;57.36;94017.00;5125159;28;20021;-82
2022/07/25 03:38:18;;;;;;;10.60;7.65;;;;;;;21.92;57.71;94025.50;5124874;28;20369;-82
2022/07/25 03:40:43;;;;;;;10.82;7.93;;;;;;;21.86;57.79;94023.53;5124809;28;20024;-81
2022/07/25 03:43:08;;;;;;;13.50;8.27;;;;;;;;;;5124758;28;20277;-82
2022/07/25 03:45:34;;;;;;;11.02;7.07;;;;;;;21.83;57.77;94023.13;5124777;28;20313;-81
2022/07/25 03:47:59;;;;;;;9.80;6.85;;;;;;;21.78;58.29;94007.22;5124933;28;20316;-82
2022/07/25 03:50:25;;;;;;;11.52;6.75;;;;;;;21.78;57.46;94009.16;5124856;28;20022;-82
2022/07/25 03:52:50;;;;;;;10.48;7.00;;;;;;;21.76;57.85;94014.97;5125061;28;20011;-82
2022/07/25 03:55:16;;;;;;;16.52;7.63;;;;;;;21.81;57.37;94016.53;5125931;28;20039;-82
2022/07/25 03:57:42;;;;;;;10.88;7.72;;;;;;;21.83;57.46;94027.78;5125965;27;20035;-84
2022/07/25 04:00:09;;;;;;;14.10;7.43;;;;;;;21.77;57.31;94030.06;5125957;28;20245;-84
2022/07/25 04:02:38;;;;;;;16.95;7.63;;;;;;;21.74;57.71;94028.13;5125055;28;20263;-83
2022/07/25 04:05:05;;;;;;;9.07;6.82;;;;;;;21.73;57.74;94044.78;5125496;28;20026;-84
2022/07/25 04:07:31;;;;;;;9.18;6.78;;;;;;;21.78;56.99;94039.00;5125054;28;20087;-83
2022/07/25 04:09:56;;;;;;;12.40;6.25;;;;;;;21.79;56.61;94035.91;5124038;28;20015;-84
2022/07/25 04:12:22;;;;;;;11.75;7.40;;;;;;;21.88;56.20;94026.63;5124359;28;20015;-83
2022/07/25 04:14:47;;;;;;;8.43;6.32;;;;;;;21.93;56.28;94024.34;5124239;28;20023;-84
2022/07/25 04:17:13;;;;;;;10.10;6.80;;;;;;;21.98;55.91;94021.28;5124114;28;20119;-83
2022/07/25 04:19:38;;;;;;;9.27;6.43;;;;;;;22.06;55.32;94026.72;5124204;28;20243;-82
2022/07/25 04:22:04;;;;;;;14.68;6.47;;;;;;;22.13;55.49;94011.22;5124386;28;20368;-84
2022/07/25 04:24:29;;;;;;;9.85;6.28;;;;;;;22.20;54.91;94016.66;5123996;28;20034;-84
2022/07/25 04:26:55;;;;;;;9.68;6.50;;;;;;;22.29;54.29;94012.84;5123999;28;20027;-84
2022/07/25 04:29:20;;;;;;;9.82;6.95;;;;;;;22.38;54.30;94016.00;5124291;28;20202;-85
2022/07/25 04:31:46;;;;;;;10.15;6.30;;;;;;;22.40;54.21;94013.66;5123964;28;20314;-84
2022/07/25 04:34:14;;;;;;;11.43;6.88;;;;;;;22.40;53.11;94013.66;5123995;28;20035;-85
2022/07/25 04:36:40;;;;;;;10.45;5.90;;;;;;;22.51;54.16;94014.47;5123793;28;20019;-86
2022/07/25 04:39:06;;;;;;;9.90;6.47;;;;;;;22.57;53.39;94012.94;5122709;28;20015;-85
2022/07/25 04:41:31;;;;;;;8.75;6.07;;;;;;;22.63;53.64;94018.75;5122652;28;20042;-85
2022/07/25 04:43:57;;;;;;;9.23;6.07;;;;;;;22.71;52.44;94019.53;5123476;28;20039;-85
2022/07/25 04:46:23;;;;;;;9.00;6.18;;;;;;;22.73;52.98;94019.94;5123665;28;20023;-85
2022/07/25 04:48:49;;;;;;;8.80;6.13;;;;;;;22.80;53.04;94025.38;5123814;28;20019;-85
2022/07/25 04:51:15;;;;;;;7.80;5.90;;;;;;;22.86;52.94;94025.75;5123670;28;20028;-85
2022/07/25 04:53:40;;;;;;;11.75;6.20;;;;;;;22.88;52.58;94024.22;5123432;28;20031;-83
2022/07/25 04:56:06;;;;;;;8.40;5.65;;;;;;;22.88;50.96;94024.22;5139562;27;20055;-84
2022/07/25 04:58:32;;;;;;;9.38;5.47;;;;;;;22.97;52.08;94026.53;5123582;28;20103;-84
2022/07/25 05:00:57;;;;;;;8.43;5.95;;;;;;;23.03;51.85;94017.63;5121963;28;20028;-83
2022/07/25 05:03:23;;;;;;;7.95;5.65;;;;;;;23.06;51.62;94026.97;5123409;28;20031;-84
2022/07/25 05:05:49;;;;;;;7.90;5.75;;;;;;;23.07;51.42;94016.88;5123381;28;20026;-84
2022/07/25 05:08:15;;;;;;;15.85;6.75;;;;;;;23.10;51.15;94033.19;5123291;28;20189;-84
2022/07/25 05:10:41;;;;;;;12.75;6.03;;;;;;;23.13;51.41;94021.53;5123298;28;20214;-84
2022/07/25 05:13:07;;;;;;;12.00;5.82;;;;;;;23.14;52.22;94022.28;5121985;28;20202;-84
2022/07/25 05:15:32;;;;;;;8.25;6.15;;;;;;;23.22;51.60;94021.13;5139476;27;20045;-84
2022/07/25 05:17:58;;;;;;;14.23;6.47;;;;;;;23.24;51.37;94026.94;5123112;28;20036;-84
2022/07/25 05:20:23;;;;;;;8.15;5.82;;;;;;;23.22;51.28;94030.09;5127409;28;20015;-83
2022/07/25 05:22:49;;;;;;;14.38;6.68;;;;;;;23.23;51.24;94022.69;5130208;27;20232;-84
2022/07/25 05:25:14;;;;;;;8.32;6.00;;;;;;;23.30;51.54;94030.81;5130188;27;20043;-83
2022/07/25 05:27:40;;;;;;;6.80;5.68;;;;;;;23.36;51.77;94029.28;5129937;27;20023;-83
2022/07/25 05:30:08;;;;;;;11.13;6.15;;;;;;;23.38;51.35;94037.81;5130346;27;20024;-82
2022/07/25 05:32:33;;;;;;;13.38;6.50;;;;;;;23.42;51.09;94038.59;5130326;27;20042;-82
2022/07/25 05:34:59;;;;;;;9.38;5.50;;;;;;;23.44;50.69;94044.41;5130114;27;20325;-81
2022/07/25 05:37:24;;;;;;;8.07;5.97;;;;;;;23.49;50.92;94032.38;5130276;27;20030;-81
2022/07/25 05:39:50;;;;;;;13.52;7.00;;;;;;;23.44;50.37;94030.81;5129980;27;20075;-83
2022/07/25 05:42:15;;;;;;;8.25;6.25;;;;;;;23.46;51.08;94026.94;5129864;27;20072;-82
2022/07/25 05:44:41;;;;;;;13.40;6.20;;;;;;;23.47;51.26;94023.03;5129894;27;20100;-82
2022/07/25 05:47:10;;;;;;;8.48;6.60;;;;;;;23.46;51.04;94025.00;5130255;27;20035;-82
2022/07/25 05:49:36;;;;;;;11.07;7.00;;;;;;;23.60;50.37;94027.69;5130005;27;20028;-86
2022/07/25 05:52:02;;;;;;;8.68;6.18;;;;;;;23.68;50.56;94023.00;5129962;27;20053;-84
2022/07/25 05:54:27;;;;;;;11.43;5.80;;;;;;;23.78;49.99;94027.66;5130003;27;20016;-83
2022/07/25 05:56:53;;;;;;;8.40;6.03;;;;;;;23.89;49.60;94018.69;5129948;27;20023;-84
2022/07/25 05:59:18;;;;;;;11.80;7.22;;;;;;;23.89;50.64;94032.31;5129902;27;20047;-84
2022/07/25 06:01:43;;;;;;;10.88;6.28;;;;;;;23.86;50.49;94027.66;5129806;27;20095;-84
2022/07/25 06:04:09;;;;;;;13.30;6.63;;;;;;;23.92;50.81;94015.19;5129744;27;20024;-84
2022/07/25 06:06:34;;;;;;;9.55;5.50;;;;;;;24.01;50.57;94016.31;5129713;27;20069;-83
2022/07/25 06:09:00;;;;;;;10.02;6.55;;;;;;;24.09;49.53;94016.28;5129645;27;20328;-82
2022/07/25 06:11:27;;;;;;;11.73;6.35;;;;;;;24.15;49.83;94009.25;5129909;27;20015;-81
2022/07/25 06:13:53;;;;;;;12.05;6.53;;;;;;;24.13;50.59;94012.38;5129847;27;20194;-83
2022/07/25 06:16:19;;;;;;;11.27;6.30;;;;;;;24.18;50.65;94013.91;5129477;27;20098;-82
2022/07/25 06:18:44;;;;;;;9.30;6.25;;;;;;;24.23;50.70;94008.81;5129585;27;20023;-83
2022/07/25 06:21:09;;;;;;;12.88;7.30;;;;;;;24.39;49.97;94005.63;5129484;27;20027;-77
2022/07/25 06:23:35;;;;;;;12.27;6.22;;;;;;;24.47;48.95;94011.81;5129102;27;20050;-71
2022/07/25 06:26:00;;;;;;;13.35;6.70;;;;;;;24.45;49.39;94014.19;5129460;27;20047;-71
2022/07/25 06:28:26;;;;;;;11.25;6.47;;;;;;;24.54;48.80;94008.31;5129335;27;20072;-71
2022/07/25 06:30:51;;;;;;;10.85;5.72;;;;;;;24.60;49.19;94021.09;5127734;27;20023;-70
2022/07/25 06:33:17;;;;;;;12.93;5.78;;;;;;;24.67;49.23;94008.59;5125534;28;20020;-71
2022/07/25 06:35:42;;;;;;;10.85;6.35;;;;;;;24.69;47.83;94023.41;5125994;28;20019;-69
2022/07/25 06:38:10;;;;;;;8.25;6.38;;;;;;;24.77;48.96;94013.22;5125719;28;20281;-70
2022/07/25 06:40:35;;;;;;;14.05;6.47;;;;;;;24.89;48.33;94020.13;5125726;28;20314;-70
2022/07/25 06:43:01;;;;;;;9.98;6.05;;;;;;;24.93;47.66;94021.66;5125684;28;20100;-70
2022/07/25 06:45:26;;;;;;;9.35;6.32;;;;;;;24.95;47.52;94018.53;5125980;28;20047;-69
2022/07/25 06:47:52;;;;;;;14.77;6.35;;;;;;;24.90;48.08;94018.97;5125458;28;20023;-69
2022/07/25 06:50:18;;;;;;;10.30;6.70;;;;;;;24.96;47.63;94009.19;5125776;28;20023;-71
2022/07/25 06:52:44;;;;;;;12.73;6.25;;;;;;;24.99;47.01;94013.84;5125687;28;20073;-71
2022/07/25 06:55:12;;;;;;;10.85;6.45;;;;;;;24.99;46.41;94011.09;5125772;28;20224;-73
2022/07/25 06:57:38;;;;;;;12.82;7.00;;;;;;;24.98;46.86;94007.59;5125567;28;20051;-73
2022/07/25 07:00:08;;;;;;;11.38;6.82;;;;;;;24.99;48.15;94006.44;5125609;28;20023;-71
2022/07/25 07:02:35;;;;;;;9.98;6.22;;;;;;;25.02;46.96;94000.19;5125435;28;20031;-72
2022/07/25 07:05:00;;;;;;;13.32;6.00;;;;;;;25.12;46.41;94008.69;5125330;28;20019;-73
2022/07/25 07:07:26;;;;;;;15.05;6.60;;;;;;;25.17;46.62;94014.47;5125300;28;20030;-72
2022/07/25 07:09:51;;;;;;;10.52;6.95;;;;;;;25.23;45.96;94012.09;5125189;28;20301;-71
2022/07/25 07:12:17;;;;;;;19.60;6.85;;;;;;;25.33;45.55;94013.19;5125316;28;20024;-71
2022/07/25 07:14:44;;;;;;;17.33;6.72;;;;;;;25.26;45.06;94011.31;5125416;28;20324;-71
2022/07/25 07:17:09;;;;;;;9.45;6.65;;;;;;;25.30;46.37;94003.09;5125152;28;20047;-72
2022/07/25 07:19:34;;;;;;;10.25;6.68;;;;;;;25.36;44.82;94020.56;5125167;28;20023;-71
2022/07/25 07:22:00;;;;;;;10.40;6.07;;;;;;;25.25;44.94;94007.03;5125184;28;20223;-72
2022/07/25 07:24:25;;;;;;;8.65;6.70;;;;;;;25.34;44.55;94001.91;5125418;28;20039;-72
2022/07/25 07:26:52;;;;;;;10.00;6.57;;;;;;;25.32;44.13;93998.78;5125197;28;20026;-73
2022/07/25 07:29:18;;;;;;;9.50;7.25;;;;;;;25.35;44.50;93989.78;5125160;28;20030;-73
2022/07/25 07:31:43;;;;;;;12.10;6.20;;;;;;;25.43;45.38;93998.69;5124904;28;20090;-73
2022/07/25 07:34:09;;;;;;;9.80;6.45;;;;;;;25.35;43.12;93995.25;5124976;28;20039;-72
2022/07/25 07:36:34;;;;;;;11.90;7.25;;;;;;;25.41;44.11;94001.03;5124913;28;20137;-72
2022/07/25 07:38:59;;;;;;;10.77;6.75;;;;;;;25.38;43.23;93996.38;5124822;28;20281;-72
2022/07/25 07:41:25;;;;;;;12.77;6.30;;;;;;;25.40;44.73;93994.03;5125081;28;20310;-73
2022/07/25 07:43:50;;;;;;;11.30;6.78;;;;;;;25.52;44.99;93998.97;5124476;28;20027;-72
2022/07/25 07:46:16;;;;;;;11.02;6.65;;;;;;;25.56;43.57;93998.94;5124525;28;20015;-72
2022/07/25 07:48:41;;;;;;;11.40;7.03;;;;;;;25.59;42.78;93998.13;5124669;27;20035;-72
2022/07/25 07:51:06;;;;;;;11.00;6.82;;;;;;;25.64;43.29;93997.69;5124580;28;20090;-72
2022/07/25 07:56:20;;;;;;;8.00;6.50;;;;;;;25.72;43.08;93998.38;5124554;28;20039;-73
2022/07/25 07:58:45;;;;;;;11.50;6.30;;;;;;;25.73;43.32;93999.94;5124167;28;20031;-72
2022/07/25 08:01:11;;;;;;;10.80;6.80;;;;;;;25.86;43.75;93998.22;5124276;28;20084;-71
2022/07/25 08:03:36;;;;;;;16.13;7.10;;;;;;;25.93;40.46;93995.47;5124243;28;20032;-71
2022/07/25 08:06:02;;;;;;;8.55;6.65;;;;;;;25.90;42.04;93993.53;5124420;28;20031;-71
2022/07/25 08:08:29;;;;;;;8.30;6.30;;;;;;;26.00;43.69;94000.81;5124333;28;20028;-71
2022/07/25 08:10:55;;;;;;;10.38;6.47;;;;;;;26.10;42.53;93996.41;5124413;28;20030;-75
2022/07/25 08:13:23;;;;;;;9.20;6.57;;;;;;;26.15;42.59;93987.75;5124092;28;20091;-77
2022/07/25 08:15:51;;;;;;;10.95;6.63;;;;;;;26.22;40.99;93993.13;5123635;28;20027;-76
2022/07/25 08:18:17;;;;;;;11.27;6.72;;;;;;;26.35;40.00;93992.59;5123832;27;20039;-76
2022/07/25 08:20:43;;;;;;;7.50;6.18;;;;;;;26.38;40.56;93998.00;5123926;28;20042;-77
2022/07/25 08:23:11;;;;;;;14.90;6.93;;;;;;;26.48;40.31;93992.78;5123797;28;20020;-72
2022/07/25 08:25:37;;;;;;;10.80;6.63;;;;;;;26.43;39.43;93991.31;5123797;28;20250;-73
2022/07/25 08:28:05;;;;;;;7.57;6.05;;;;;;;26.45;40.85;93986.19;5123703;28;20022;-72
2022/07/25 08:30:30;;;;;;;9.25;6.70;;;;;;;26.48;40.56;93982.66;5123638;28;20068;-72
2022/07/25 08:33:02;;;;;;;8.75;6.03;;;;;;;26.39;40.70;93999.53;5123650;28;20047;-72
2022/07/25 08:35:28;;;;;;;12.90;6.63;;;;;;;26.40;39.52;93986.69;5123990;28;20029;-72
2022/07/25 08:37:54;;;;;;;11.82;6.75;;;;;;;26.46;38.53;93990.50;5123723;28;20015;-72
2022/07/25 08:40:23;;;;;;;8.20;5.78;;;;;;;26.47;38.10;94000.22;5123378;28;20019;-76
2022/07/25 08:42:50;;;;;;;8.23;6.13;;;;;;;26.39;38.88;93996.03;5123431;28;20341;-72
2022/07/25 08:45:18;;;;;;;7.85;5.20;;;;;;;26.56;37.73;93984.09;5122083;28;20022;-72
2022/07/25 08:47:45;;;;;;;7.25;5.93;;;;;;;26.64;38.21;93981.28;5123170;28;20095;-72
2022/07/25 08:50:15;;;;;;;8.93;5.50;;;;;;;26.85;39.17;93985.66;5123350;28;20016;-72
2022/07/25 08:52:46;;;;;;;10.70;6.22;;;;;;;27.00;38.09;93987.75;5123363;28;20269;-71
2022/07/25 08:55:18;;;;;;;7.57;5.57;;;;;;;27.04;38.80;93978.72;5122643;28;20375;-72
2022/07/25 08:57:46;;;;;;;9.07;6.38;;;;;;;27.10;38.55;93977.06;5122985;28;20022;-72
2022/07/25 09:00:15;;;;;;;10.88;5.88;;;;;;;27.09;37.95;93973.56;5123159;28;20094;-72
2022/07/25 09:02:41;;;;;;;12.40;6.03;;;;;;;27.19;37.08;93985.50;5122843;28;20036;-72
2022/07/25 09:05:07;;;;;;;12.15;5.35;;;;;;;27.34;36.54;93986.84;5123327;28;20265;-71
2022/07/25 09:07:38;;;;;;;7.88;5.75;;;;;;;27.37;35.92;93983.25;5123247;28;20024;-72
2022/07/25 09:10:18;;;;;;;10.00;6.35;;;;;;;27.36;36.64;93976.25;5122982;28;20068;-72
2022/07/25 09:12:56;;;;;;;9.45;5.82;;;;;;;27.48;36.12;93969.41;5122868;28;20020;-72
2022/07/25 09:15:33;;;;;;;9.93;6.50;;;;;;;27.61;35.32;93961.31;5122947;28;20027;-72
2022/07/25 09:18:01;;;;;;;9.52;5.68;;;;;;;27.68;34.91;93971.38;5122925;28;20063;-72
2022/07/25 09:20:37;;;;;;;7.38;5.85;;;;;;;27.67;35.24;93970.59;5122954;28;20028;-71
2022/07/25 09:23:03;;;;;;;10.18;6.10;;;;;;;27.65;35.51;93961.25;5122896;28;20156;-71
2022/07/25 09:25:28;;;;;;;15.93;5.75;;;;;;;27.74;35.46;93967.75;5123217;28;20019;-71
2022/07/25 09:27:55;;;;;;;10.10;5.55;;;;;;;27.77;36.75;93966.13;5123235;28;20348;-73
2022/07/25 09:30:21;;;;;;;8.82;6.07;;;;;;;27.78;35.02;93970.38;5123100;28;20028;-72
2022/07/25 09:32:46;;;;;;;9.95;5.72;;;;;;;27.80;35.20;93963.31;5122925;28;20020;-72
2022/07/25 09:35:12;;;;;;;7.50;5.60;;;;;;;27.83;34.91;93955.44;5122947;28;20019;-73
2022/07/25 09:37:38;;;;;;;8.00;6.25;;;;;;;27.96;34.31;93967.31;5122630;28;20062;-71
2022/07/25 09:40:12;;;;;;;8.40;5.85;;;;;;;27.92;35.55;93958.41;5122964;28;20020;-74
2022/07/25 09:42:38;;;;;;;11.00;6.07;;;;;;;28.10;35.47;93961.56;5122762;28;20061;-74
2022/07/25 09:45:11;;;;;;;13.35;6.38;;;;;;;28.15;34.26;93944.63;5122550;28;20244;-72
2022/07/25 09:47:49;;;;;;;9.02;5.78;;;;;;;28.23;34.19;93958.97;5122476;28;20257;-74
2022/07/25 09:50:15;;;;;;;11.38;5.65;;;;;;;28.06;34.48;93960.84;5122621;28;20030;-74
2022/07/25 09:52:41;;;;;;;8.20;5.75;;;;;;;28.01;34.66;93955.88;5122713;28;20026;-73
2022/07/25 09:55:08;;;;;;;8.25;5.35;;;;;;;28.09;36.18;93961.97;5122560;28;20024;-74
2022/07/25 09:57:34;;;;;;;12.05;5.82;;;;;;;28.20;34.10;93946.84;5121890;28;20020;-74
2022/07/25 10:00:00;;;;;;;6.90;5.75;;;;;;;28.33;34.24;93943.47;5122436;28;20030;-75
2022/07/25 10:02:37;;;;;;;8.98;5.82;;;;;;;28.55;34.03;93949.28;5122624;28;20015;-75
2022/07/25 10:05:12;;;;;;;8.35;5.95;;;;;;;28.50;35.04;93945.06;5122318;28;20065;-74
2022/07/25 10:07:45;;;;;;;8.43;5.78;;;;;;;28.38;35.05;93949.22;5124888;28;20030;-74
2022/07/25 10:10:27;;;;;;;6.60;5.50;;;;;;;28.36;34.66;93946.13;5126270;28;20225;-73
2022/07/25 10:12:58;;;;;;;;;;;;;;;28.10;34.19;93947.84;5126568;28;20011;-73
2022/07/25 10:15:24;;;;;;;7.72;5.65;;;;;;;28.05;35.00;93945.63;5126343;28;19910;-73
2022/07/25 10:18:02;;;;;;;14.20;5.55;;;;;;;28.16;34.39;93940.69;5126085;28;20031;-73
2022/07/25 10:20:28;;;;;;;8.25;5.82;;;;;;;28.37;33.29;93944.94;5126407;28;20023;-73
2022/07/25 10:22:53;;;;;;;11.93;5.80;;;;;;;28.37;34.01;93931.25;5125844;28;20217;-72
2022/07/25 10:26:12;;;;;;;7.75;5.38;;;;;;;28.33;34.67;93946.19;5125778;28;20186;-72
2022/07/25 10:28:40;;;;;;;9.45;5.50;;;;;;;28.23;34.14;93944.47;5121782;28;20028;-73
2022/07/25 10:31:18;;;;;;;7.25;5.75;;;;;;;28.16;34.68;93932.47;5125561;28;20376;-77
2022/07/25 10:33:50;;;;;;;8.23;5.07;;;;;;;28.09;34.92;93935.38;5125468;28;20026;-74
2022/07/25 10:36:16;;;;;;;8.52;5.63;;;;;;;28.02;34.78;93930.03;5126061;28;20026;-72
2022/07/25 10:38:44;;;;;;;8.45;6.00;;;;;;;28.12;34.86;93925.53;5125815;27;20091;-72
2022/07/25 10:41:11;;;;;;;7.07;4.88;;;;;;;28.19;32.54;93917.13;5125666;28;20030;-74
2022/07/25 10:43:39;;;;;;;7.28;5.15;;;;;;;28.41;32.03;93918.22;5125632;28;20019;-71
2022/07/25 10:46:18;;;;;;;8.80;5.43;;;;;;;28.57;31.58;93914.72;5125583;28;20031;-72
2022/07/25 10:48:44;;;;;;;7.15;4.82;;;;;;;28.65;30.96;93915.34;5125623;27;20030;-71
2022/07/25 10:51:11;;;;;;;8.27;5.60;;;;;;;28.78;31.79;93912.69;5125428;27;20023;-72
2022/07/25 10:53:45;;;;;;;8.55;5.38;;;;;;;28.81;32.36;93915.34;5125054;28;20042;-71
2022/07/25 10:56:19;;;;;;;7.35;5.75;;;;;;;29.03;31.68;93914.06;5125112;28;20050;-72
2022/07/25 10:58:51;;;;;;;9.32;5.68;;;;;;;29.03;33.21;93920.31;5125418;28;20054;-71
2022/07/25 11:01:24;;;;;;;;;;;;;;;28.89;32.13;93917.94;5125721;28;20329;-71
2022/07/25 11:03:50;;;;;;;8.88;5.45;;;;;;;28.82;30.93;93913.38;5125314;28;19982;-74
2022/07/25 11:06:27;;;;;;;10.52;5.20;;;;;;;28.80;30.93;93908.34;5125231;28;20035;-71
2022/07/25 11:08:56;;;;;;;6.68;5.03;;;;;;;28.78;31.13;93908.00;5125070;28;20020;-74
2022/07/25 11:11:39;;;;;;;7.53;4.65;;;;;;;28.83;32.80;93903.94;5124746;27;20020;-71
2022/07/25 11:14:23;;;;;;;7.75;5.63;;;;;;;28.90;32.30;93901.03;5124810;28;20271;-72
2022/07/25 11:16:53;;;;;;;7.25;5.40;;;;;;;28.94;31.72;93898.19;5124568;28;20441;-71
2022/07/25 11:19:25;;;;;;;6.38;4.70;;;;;;;28.96;32.76;93896.59;5124266;28;20049;-71
2022/07/25 11:21:55;;;;;;;11.05;4.70;;;;;;;28.87;32.02;93890.16;5124657;28;20048;-70
2022/07/25 11:24:32;;;;;;;10.45;5.18;;;;;;;28.86;31.23;93892.09;5124806;28;20221;-69
2022/07/25 11:26:57;;;;;;;10.15;5.15;;;;;;;28.91;29.68;93891.59;5125079;28;20034;-70
2022/07/25 11:29:25;;;;;;;7.30;5.30;;;;;;;29.03;29.66;93886.63;5124762;28;20028;-75
2022/07/25 11:32:04;;;;;;;5.97;4.70;;;;;;;29.12;29.29;93886.81;5124906;28;20023;-75